createdAt,value
2022-12-24T00:00:49.189Z,10.5
2022-12-24T00:15:24.109Z,10.5
2022-12-24T00:29:59.023Z,10.4
2022-12-24T00:44:34.159Z,10.4
2022-12-24T00:59:08.585Z,10.3
2022-12-24T01:13:43.485Z,10.3
2022-12-24T01:28:18.342Z,10
2022-12-24T01:42:52.213Z,9.7
2022-12-24T01:57:27.299Z,9.5
2022-12-24T02:12:02.462Z,9.5
2022-12-24T02:26:38.649Z,9.4
2022-12-24T02:41:13.450Z,9.6
2022-12-24T02:55:48.998Z,9.6
2022-12-24T03:10:23.397Z,9.7
2022-12-24T03:24:58.782Z,9.7
2022-12-24T03:39:34.459Z,9.7
2022-12-24T03:54:08.964Z,9.6
2022-12-24T04:08:43.496Z,9.5
2022-12-24T04:23:18.628Z,9.4
2022-12-24T04:37:53.921Z,9.5
2022-12-24T04:52:29.866Z,9.4
2022-12-24T05:07:03.310Z,9.4
2022-12-24T05:21:38.021Z,9.3
2022-12-24T05:36:13.216Z,9.3
2022-12-24T05:50:49.577Z,9.3
2022-12-24T06:05:24.651Z,9.4
2022-12-24T06:20:00.635Z,9.4
2022-12-24T06:34:37.733Z,9.4
2022-12-24T06:49:12.702Z,9.5
2022-12-24T07:03:48.972Z,9.5
2022-12-24T07:18:24.098Z,9.4
2022-12-24T07:32:59.673Z,9.6
2022-12-24T07:47:35.330Z,9.5
2022-12-24T08:02:19.731Z,9.4
2022-12-24T08:16:50.187Z,9.4
2022-12-24T08:31:25.302Z,9.4
2022-12-24T08:46:02.509Z,9.5
2022-12-24T09:00:59.787Z,9.6
2022-12-24T09:15:27.688Z,9.7
2022-12-24T09:30:03.531Z,9.7
2022-12-24T09:44:39.270Z,9.7
2022-12-24T09:59:13.750Z,9.7
2022-12-24T10:13:49.031Z,9.8
2022-12-24T10:28:24.904Z,9.9
2022-12-24T10:43:00.573Z,10
2022-12-24T10:57:35.673Z,9.9
2022-12-24T11:12:10.957Z,10
2022-12-24T11:26:46.970Z,10
2022-12-24T11:41:23.011Z,10.1
2022-12-24T11:55:58.767Z,10.5
2022-12-24T12:10:35.006Z,10.8
2022-12-24T12:25:10.922Z,10.7
2022-12-24T12:39:46.723Z,10.7
2022-12-24T12:54:22.670Z,10.7
2022-12-24T13:09:00.835Z,10.8
2022-12-24T13:23:35.065Z,10.7
2022-12-24T13:38:09.930Z,10.6
2022-12-24T13:52:45.791Z,10.7
2022-12-24T14:07:21.556Z,10.7
2022-12-24T14:21:56.881Z,10.6
2022-12-24T14:36:32.597Z,10.5
2022-12-24T14:51:09.558Z,10.4
2022-12-24T15:05:44.118Z,10.2
2022-12-24T15:20:19.862Z,10
2022-12-24T15:34:54.507Z,9.6
2022-12-24T15:49:30.284Z,9.5
2022-12-24T16:04:05.608Z,9.6
2022-12-24T16:18:40.444Z,9.4
2022-12-24T16:33:13.429Z,9.2
2022-12-24T16:47:48.590Z,9
2022-12-24T17:02:25.383Z,8.8
2022-12-24T17:16:59.353Z,8.5
2022-12-24T17:31:34.236Z,8.4
2022-12-24T17:46:09.141Z,8.3
2022-12-24T18:00:44.336Z,8.4
2022-12-24T18:15:19.902Z,8
2022-12-24T18:29:55.296Z,8
2022-12-24T18:44:30.044Z,8.2
2022-12-24T18:59:05.794Z,8.2
2022-12-24T19:13:39.872Z,7.6
2022-12-24T19:28:15.570Z,7.5
2022-12-24T19:42:48.629Z,7.5
2022-12-24T19:57:24.365Z,7.3
2022-12-24T20:12:00.936Z,7.7
2022-12-24T20:26:37.708Z,7.9
2022-12-24T20:41:13.778Z,8.1
2022-12-24T20:55:50.130Z,8.3
2022-12-24T21:10:35.022Z,8.4
2022-12-24T21:25:06.237Z,8.3
2022-12-24T21:39:41.568Z,8.2
2022-12-24T21:54:16.952Z,7.7
2022-12-24T22:08:52.159Z,7.8
2022-12-24T22:23:28.758Z,7.6
2022-12-24T22:38:02.877Z,7.3
2022-12-24T22:52:39.358Z,7.7
2022-12-24T23:07:15.279Z,7.7
2022-12-24T23:21:51.526Z,7.7
2022-12-24T23:36:29.414Z,7.6
2022-12-24T23:51:06.982Z,8.1
